createdAt,value
2022-08-03T00:00:16.454Z,960.91
2022-08-03T00:01:16.513Z,960.87
2022-08-03T00:03:16.407Z,960.88
2022-08-03T00:04:16.523Z,960.91
2022-08-03T00:05:16.489Z,960.88
2022-08-03T00:06:16.391Z,960.87
2022-08-03T00:07:16.525Z,960.88
2022-08-03T00:08:16.498Z,960.89
2022-08-03T00:09:16.499Z,960.86
2022-08-03T00:10:16.401Z,960.91
2022-08-03T00:11:16.494Z,960.92
2022-08-03T00:12:16.730Z,960.94
2022-08-03T00:13:16.541Z,960.9
2022-08-03T00:14:16.501Z,960.96
2022-08-03T00:15:17.382Z,960.94
2022-08-03T00:16:16.426Z,960.95
2022-08-03T00:18:17.404Z,960.94
2022-08-03T00:19:16.548Z,960.97
2022-08-03T00:20:16.517Z,960.96
2022-08-03T00:21:16.569Z,960.99
2022-08-03T00:22:16.801Z,960.98
2022-08-03T00:23:16.439Z,960.97
2022-08-03T00:24:16.479Z,960.99
2022-08-03T00:25:16.549Z,960.96
2022-08-03T00:26:16.447Z,960.94
2022-08-03T00:27:16.732Z,960.93
2022-08-03T00:29:16.514Z,960.91
2022-08-03T00:31:16.659Z,960.88
2022-08-03T00:32:17.043Z,960.93
2022-08-03T00:33:16.637Z,960.87
2022-08-03T00:34:16.556Z,960.92
2022-08-03T00:35:27.438Z,960.89
2022-08-03T00:36:16.629Z,960.91
2022-08-03T00:38:16.538Z,960.88
2022-08-03T00:39:16.599Z,960.87
2022-08-03T00:40:16.567Z,960.85
2022-08-03T00:41:16.636Z,960.88
2022-08-03T00:42:16.904Z,960.86
2022-08-03T00:44:16.634Z,960.89
2022-08-03T00:45:16.603Z,960.88
2022-08-03T00:46:21.237Z,960.84
2022-08-03T00:47:16.650Z,960.83
2022-08-03T00:48:19.321Z,960.87
2022-08-03T00:49:16.518Z,960.84
2022-08-03T00:51:16.619Z,960.86
2022-08-03T00:52:16.504Z,960.85
2022-08-03T00:55:16.598Z,960.87
2022-08-03T00:56:16.661Z,960.86
2022-08-03T00:57:16.519Z,960.83
2022-08-03T00:58:16.596Z,960.85
2022-08-03T00:59:16.664Z,960.86
2022-08-03T01:00:16.645Z,960.84
2022-08-03T01:01:16.683Z,960.81
2022-08-03T01:02:16.771Z,960.82
2022-08-03T01:03:16.645Z,960.84
2022-08-03T01:04:16.607Z,960.83
2022-08-03T01:05:16.676Z,960.81
2022-08-03T01:06:16.654Z,960.84
2022-08-03T01:07:16.630Z,960.81
2022-08-03T01:08:17.668Z,960.82
2022-08-03T01:09:16.653Z,960.8
2022-08-03T01:10:16.635Z,960.78
2022-08-03T01:11:16.697Z,960.8
2022-08-03T01:13:59.420Z,960.79
2022-08-03T01:14:18.492Z,960.78
2022-08-03T01:15:16.665Z,960.85
2022-08-03T01:16:16.628Z,960.8
2022-08-03T01:17:16.705Z,960.83
2022-08-03T01:19:16.623Z,960.85
2022-08-03T01:20:16.573Z,960.82
2022-08-03T01:21:16.566Z,960.83
2022-08-03T01:24:16.573Z,960.81
2022-08-03T01:25:16.736Z,960.83
2022-08-03T01:26:16.596Z,960.81
2022-08-03T01:27:16.670Z,960.82
2022-08-03T01:28:16.621Z,960.77
2022-08-03T01:30:16.592Z,960.79
2022-08-03T01:33:16.683Z,960.8
2022-08-03T01:34:16.594Z,960.82
2022-08-03T01:35:16.723Z,960.8
2022-08-03T01:36:16.684Z,960.82
2022-08-03T01:37:16.615Z,960.8
2022-08-03T01:39:16.697Z,960.81
2022-08-03T01:41:16.625Z,960.82
2022-08-03T01:42:16.907Z,960.84
2022-08-03T01:43:54.998Z,960.77
2022-08-03T01:44:28.890Z,960.81
2022-08-03T01:45:16.710Z,960.82
2022-08-03T01:46:16.630Z,960.81
2022-08-03T01:47:16.726Z,960.77
2022-08-03T01:48:16.713Z,960.82
2022-08-03T01:49:16.640Z,960.8
2022-08-03T01:50:16.748Z,960.82
2022-08-03T01:51:16.797Z,960.76
2022-08-03T01:52:16.864Z,960.77
2022-08-03T01:53:16.652Z,960.8
2022-08-03T01:54:16.661Z,960.79
2022-08-03T01:55:16.660Z,960.81
2022-08-03T01:56:16.668Z,960.82
2022-08-03T01:57:16.839Z,960.81
2022-08-03T01:58:16.909Z,960.85
2022-08-03T01:59:16.668Z,960.8
2022-08-03T02:00:16.822Z,960.81
2022-08-03T02:01:16.684Z,960.8
2022-08-03T02:02:31.705Z,960.74
2022-08-03T02:03:18.138Z,960.77
2022-08-03T02:05:16.757Z,960.76
2022-08-03T02:08:16.686Z,960.75
2022-08-03T02:09:16.730Z,960.77
2022-08-03T02:10:16.801Z,960.79
2022-08-03T02:11:17.111Z,960.78
2022-08-03T02:12:17.005Z,960.79
2022-08-03T02:13:16.700Z,960.8
2022-08-03T02:14:16.771Z,960.82
2022-08-03T02:15:16.838Z,960.8
2022-08-03T02:16:16.716Z,960.79
2022-08-03T02:17:16.706Z,960.82
2022-08-03T02:19:16.808Z,960.83
2022-08-03T02:20:16.776Z,960.8
2022-08-03T02:21:20.994Z,960.81
2022-08-03T02:22:16.839Z,960.83
2022-08-03T02:24:16.861Z,960.79
2022-08-03T02:25:16.928Z,960.81
2022-08-03T02:27:16.862Z,960.82
2022-08-03T02:28:16.825Z,960.81
2022-08-03T02:29:16.736Z,960.77
2022-08-03T02:30:21.154Z,960.78
2022-08-03T02:31:16.828Z,960.79
2022-08-03T02:32:17.033Z,960.82
2022-08-03T02:33:16.744Z,960.79
2022-08-03T02:34:16.829Z,960.81
2022-08-03T02:35:16.772Z,960.79
2022-08-03T02:36:16.753Z,960.8
2022-08-03T02:37:16.834Z,960.81
2022-08-03T02:38:16.911Z,960.77
2022-08-03T02:39:16.876Z,960.82
2022-08-03T02:40:16.844Z,960.78
2022-08-03T02:41:18.226Z,960.77
2022-08-03T02:42:16.963Z,960.73
2022-08-03T02:43:16.775Z,960.75
2022-08-03T02:44:16.834Z,960.73
2022-08-03T02:45:16.886Z,960.72
2022-08-03T02:46:16.854Z,960.73
2022-08-03T02:47:16.919Z,960.74
2022-08-03T02:48:16.887Z,960.76
2022-08-03T02:49:35.158Z,960.71
2022-08-03T02:50:17.111Z,960.75
2022-08-03T02:51:16.798Z,960.77
2022-08-03T02:52:17.032Z,960.75
2022-08-03T02:53:16.932Z,960.76
2022-08-03T02:54:16.899Z,960.75
2022-08-03T02:55:16.956Z,960.77
2022-08-03T02:56:16.935Z,960.75
2022-08-03T02:57:16.902Z,960.78
2022-08-03T02:58:16.899Z,960.77
2022-08-03T02:59:16.933Z,960.72
2022-08-03T03:00:19.568Z,960.7
2022-08-03T03:01:16.946Z,960.71
2022-08-03T03:03:16.908Z,960.72
2022-08-03T03:04:17.095Z,960.73
2022-08-03T03:08:17.594Z,960.76
2022-08-03T03:09:17.071Z,960.75
2022-08-03T03:10:16.977Z,960.76
2022-08-03T03:14:16.955Z,960.71
2022-08-03T03:15:16.927Z,960.77
2022-08-03T03:16:16.856Z,960.76
2022-08-03T03:19:17.000Z,960.78
2022-08-03T03:20:16.874Z,960.77
2022-08-03T03:21:17.118Z,960.78
2022-08-03T03:22:17.369Z,960.82
2022-08-03T03:23:16.877Z,960.8
2022-08-03T03:26:16.989Z,960.82
2022-08-03T03:27:17.082Z,960.81
2022-08-03T03:28:17.994Z,960.83
2022-08-03T03:30:17.049Z,960.82
2022-08-03T03:31:16.903Z,960.81
2022-08-03T03:32:17.186Z,960.84
2022-08-03T03:33:18.009Z,960.82
2022-08-03T03:36:16.953Z,960.86
2022-08-03T03:38:16.993Z,960.83
2022-08-03T03:39:17.144Z,960.86
2022-08-03T03:40:17.034Z,960.82
2022-08-03T03:43:17.026Z,960.79
2022-08-03T03:44:16.993Z,960.83
2022-08-03T03:45:16.931Z,960.82
2022-08-03T03:46:17.036Z,960.87
2022-08-03T03:47:17.038Z,960.88
2022-08-03T03:48:17.029Z,960.87
2022-08-03T03:49:17.090Z,960.89
2022-08-03T03:50:17.065Z,960.87
2022-08-03T03:52:17.263Z,960.89
2022-08-03T03:54:17.081Z,960.87
2022-08-03T03:55:17.045Z,960.86
2022-08-03T03:56:17.013Z,960.85
2022-08-03T03:57:16.966Z,960.88
2022-08-03T03:59:17.012Z,960.89
2022-08-03T04:00:17.093Z,960.9
2022-08-03T04:01:16.980Z,960.85
2022-08-03T04:02:18.335Z,960.9
2022-08-03T04:03:17.093Z,960.87
2022-08-03T04:04:16.969Z,960.85
2022-08-03T04:05:17.127Z,960.9
2022-08-03T04:06:17.097Z,960.84
2022-08-03T04:08:18.217Z,960.87
2022-08-03T04:09:17.096Z,960.88
2022-08-03T04:10:17.068Z,960.86
2022-08-03T04:11:17.141Z,960.84
2022-08-03T04:12:17.276Z,960.91
2022-08-03T04:13:16.989Z,960.88
2022-08-03T04:14:17.039Z,960.82
2022-08-03T04:15:17.008Z,960.92
2022-08-03T04:16:17.066Z,960.91
2022-08-03T04:17:17.138Z,960.92
2022-08-03T04:18:17.016Z,960.9
2022-08-03T04:19:21.113Z,960.93
2022-08-03T04:20:18.281Z,960.94
2022-08-03T04:21:17.011Z,960.99
2022-08-03T04:22:17.276Z,960.98
2022-08-03T04:23:17.159Z,961.02
2022-08-03T04:24:17.124Z,960.98
2022-08-03T04:26:16.978Z,961.01
2022-08-03T04:27:17.119Z,961
2022-08-03T04:28:30.250Z,961.02
2022-08-03T04:29:17.351Z,961.01
2022-08-03T04:30:17.134Z,960.98
2022-08-03T04:31:17.102Z,961.01
2022-08-03T04:32:17.562Z,960.99
2022-08-03T04:33:17.132Z,960.98
2022-08-03T04:34:18.369Z,961
2022-08-03T04:35:17.171Z,961.03
2022-08-03T04:36:17.141Z,961.02
2022-08-03T04:37:17.205Z,961.03
2022-08-03T04:38:17.053Z,961.01
2022-08-03T04:39:17.142Z,961.03
2022-08-03T04:40:17.062Z,961.02
2022-08-03T04:41:17.056Z,961.03
2022-08-03T04:42:17.284Z,961.02
2022-08-03T04:43:17.120Z,961.01
2022-08-03T04:44:17.067Z,961.02
2022-08-03T04:45:17.072Z,961.03
2022-08-03T04:46:17.082Z,961.05
2022-08-03T04:47:17.183Z,961.04
2022-08-03T04:48:17.153Z,961.07
2022-08-03T04:50:20.990Z,961.06
2022-08-03T04:51:17.311Z,961.08
2022-08-03T04:52:17.438Z,961.07
2022-08-03T04:53:17.204Z,961.06
2022-08-03T04:55:17.240Z,961.1
2022-08-03T04:56:17.104Z,961.11
2022-08-03T04:57:18.133Z,961.08
2022-08-03T04:58:18.653Z,961.11
2022-08-03T04:59:17.111Z,961.1
2022-08-03T05:00:17.173Z,961.12
2022-08-03T05:01:17.298Z,961.08
2022-08-03T05:02:17.457Z,961.09
2022-08-03T05:03:19.724Z,961.15
2022-08-03T05:04:17.271Z,961.19
2022-08-03T05:05:17.120Z,961.13
2022-08-03T05:06:17.252Z,961.15
2022-08-03T05:07:19.502Z,961.16
2022-08-03T05:08:17.347Z,961.17
2022-08-03T05:09:25.978Z,961.18
2022-08-03T05:11:17.352Z,961.21
2022-08-03T05:12:17.660Z,961.2
2022-08-03T05:14:17.148Z,961.18
2022-08-03T05:16:17.267Z,961.19
2022-08-03T05:17:17.227Z,961.18
2022-08-03T05:19:17.264Z,961.2
2022-08-03T05:20:18.766Z,961.19
2022-08-03T05:21:17.194Z,961.21
2022-08-03T05:22:17.323Z,961.2
2022-08-03T05:25:19.290Z,961.22
2022-08-03T05:26:17.242Z,961.25
2022-08-03T05:27:17.169Z,961.27
2022-08-03T05:29:17.243Z,961.28
2022-08-03T05:30:26.624Z,961.31
2022-08-03T05:31:17.411Z,961.3
2022-08-03T05:32:17.476Z,961.27
2022-08-03T05:33:17.196Z,961.31
2022-08-03T05:34:17.194Z,961.29
2022-08-03T05:36:17.312Z,961.3
2022-08-03T05:37:17.287Z,961.34
2022-08-03T05:38:23.833Z,961.33
2022-08-03T05:39:17.331Z,961.32
2022-08-03T05:40:17.204Z,961.36
2022-08-03T05:41:20.802Z,961.37
2022-08-03T05:42:17.638Z,961.39
2022-08-03T05:43:17.298Z,961.36
2022-08-03T05:44:17.372Z,961.41
2022-08-03T05:45:17.240Z,961.4
2022-08-03T05:47:17.484Z,961.42
2022-08-03T05:49:17.315Z,961.43
2022-08-03T05:51:17.344Z,961.38
2022-08-03T05:52:17.589Z,961.39
2022-08-03T05:54:17.348Z,961.41
2022-08-03T05:55:17.251Z,961.39
2022-08-03T05:56:17.402Z,961.42
2022-08-03T05:57:17.345Z,961.43
2022-08-03T05:58:17.321Z,961.42
2022-08-03T05:59:37.424Z,961.43
2022-08-03T06:01:17.547Z,961.41
2022-08-03T06:02:17.654Z,961.42
2022-08-03T06:03:17.258Z,961.43
2022-08-03T06:04:17.426Z,961.4
2022-08-03T06:05:18.378Z,961.42
2022-08-03T06:06:17.517Z,961.37
2022-08-03T06:07:17.329Z,961.41
2022-08-03T06:08:17.403Z,961.42
2022-08-03T06:09:17.369Z,961.38
2022-08-03T06:10:34.589Z,961.39
2022-08-03T06:12:17.739Z,961.4
2022-08-03T06:13:17.457Z,961.39
2022-08-03T06:14:17.326Z,961.45
2022-08-03T06:15:17.381Z,961.42
2022-08-03T06:16:17.346Z,961.45
2022-08-03T06:17:17.310Z,961.42
2022-08-03T06:18:17.308Z,961.41
2022-08-03T06:19:17.451Z,961.42
2022-08-03T06:20:17.308Z,961.41
2022-08-03T06:21:17.387Z,961.42
2022-08-03T06:22:17.911Z,961.43
2022-08-03T06:23:17.949Z,961.42
2022-08-03T06:24:17.498Z,961.4
2022-08-03T06:25:17.501Z,961.41
2022-08-03T06:26:17.434Z,961.4
2022-08-03T06:27:17.327Z,961.39
2022-08-03T06:28:42.858Z,961.4
2022-08-03T06:29:17.519Z,961.39
2022-08-03T06:30:20.958Z,961.4
2022-08-03T06:31:17.486Z,961.39
2022-08-03T06:33:17.494Z,961.38
2022-08-03T06:34:30.244Z,961.37
2022-08-03T06:35:17.446Z,961.4
2022-08-03T06:36:17.417Z,961.41
2022-08-03T06:38:17.436Z,961.4
2022-08-03T06:39:17.360Z,961.42
2022-08-03T06:40:21.974Z,961.45
2022-08-03T06:41:17.448Z,961.44
2022-08-03T06:42:17.546Z,961.45
2022-08-03T06:44:17.365Z,961.44
2022-08-03T06:45:17.411Z,961.46
2022-08-03T06:46:17.494Z,961.44
2022-08-03T06:47:17.452Z,961.46
2022-08-03T06:48:17.525Z,961.47
2022-08-03T06:50:18.485Z,961.5
2022-08-03T06:51:17.684Z,961.56
2022-08-03T06:52:37.408Z,961.68
2022-08-03T06:53:19.888Z,961.87
2022-08-03T06:54:17.587Z,962.02
2022-08-03T06:55:17.391Z,962.18
2022-08-03T06:56:17.389Z,962.25
2022-08-03T06:57:17.431Z,962.26
2022-08-03T06:58:17.391Z,962.31
2022-08-03T07:00:07.162Z,962.27
2022-08-03T07:00:17.710Z,962.31
2022-08-03T07:03:17.434Z,962.26
2022-08-03T07:04:17.502Z,962.28
2022-08-03T07:06:17.552Z,962.26
2022-08-03T07:07:17.567Z,962.25
2022-08-03T07:08:17.491Z,962.18
2022-08-03T07:09:17.693Z,962.17
2022-08-03T07:10:17.588Z,962.15
2022-08-03T07:11:17.494Z,962.08
2022-08-03T07:12:17.785Z,962.12
2022-08-03T07:13:17.524Z,962.11
2022-08-03T07:15:20.339Z,962.1
2022-08-03T07:16:17.447Z,962.05
2022-08-03T07:17:18.795Z,962.06
2022-08-03T07:18:17.575Z,962.08
2022-08-03T07:19:17.532Z,962.06
2022-08-03T07:20:17.454Z,962.09
2022-08-03T07:21:17.573Z,962
2022-08-03T07:22:17.731Z,962.01
2022-08-03T07:23:19.070Z,961.93
2022-08-03T07:24:17.761Z,961.99
2022-08-03T07:25:17.534Z,962
2022-08-03T07:26:17.473Z,961.97
2022-08-03T07:27:17.566Z,961.95
2022-08-03T07:28:17.553Z,961.87
2022-08-03T07:29:17.617Z,961.75
2022-08-03T07:30:17.577Z,961.79
2022-08-03T07:31:17.557Z,961.78
2022-08-03T07:32:17.674Z,961.86
2022-08-03T07:33:17.588Z,961.88
2022-08-03T07:34:17.570Z,961.94
2022-08-03T07:35:24.333Z,961.95
2022-08-03T07:36:17.496Z,961.9
2022-08-03T07:37:17.561Z,961.85
2022-08-03T07:38:20.856Z,961.88
2022-08-03T07:39:18.224Z,961.89
2022-08-03T07:40:17.568Z,961.93
2022-08-03T07:41:17.636Z,961.94
2022-08-03T07:43:17.675Z,961.87
2022-08-03T07:44:17.632Z,961.84
2022-08-03T07:45:17.605Z,961.83
2022-08-03T07:46:17.570Z,961.73
2022-08-03T07:47:22.558Z,961.65
2022-08-03T07:48:17.529Z,961.71
2022-08-03T07:49:17.656Z,961.67
2022-08-03T07:51:17.529Z,961.68
2022-08-03T07:53:17.555Z,961.65
2022-08-03T07:54:17.607Z,961.64
2022-08-03T07:55:17.598Z,961.57
2022-08-03T07:56:17.648Z,961.65
2022-08-03T07:57:17.621Z,961.69
2022-08-03T07:58:20.589Z,961.67
2022-08-03T07:59:17.821Z,961.66
2022-08-03T08:00:17.755Z,961.68
2022-08-03T08:01:17.635Z,961.67
2022-08-03T08:04:17.590Z,961.66
2022-08-03T08:05:17.670Z,961.68
2022-08-03T08:06:17.644Z,961.62
2022-08-03T08:07:17.602Z,961.67
2022-08-03T08:08:17.706Z,961.68
2022-08-03T08:09:17.780Z,961.7
2022-08-03T08:10:17.704Z,961.64
2022-08-03T08:11:17.672Z,961.62
2022-08-03T08:12:17.852Z,961.6
2022-08-03T08:13:17.601Z,961.59
2022-08-03T08:14:17.588Z,961.61
2022-08-03T08:15:17.647Z,961.59
2022-08-03T08:16:17.600Z,961.56
2022-08-03T08:17:17.672Z,961.52
2022-08-03T08:18:17.749Z,961.47
2022-08-03T08:19:17.711Z,961.49
2022-08-03T08:21:17.706Z,961.53
2022-08-03T08:22:17.920Z,961.51
2022-08-03T08:23:24.213Z,961.52
2022-08-03T08:24:18.048Z,961.48
2022-08-03T08:25:19.404Z,961.5
2022-08-03T08:26:17.631Z,961.44
2022-08-03T08:27:17.656Z,961.43
2022-08-03T08:28:21.901Z,961.45
2022-08-03T08:29:17.786Z,961.44
2022-08-03T08:30:19.220Z,961.48
2022-08-03T08:32:17.998Z,961.44
2022-08-03T08:33:22.915Z,961.4
2022-08-03T08:34:17.733Z,961.43
2022-08-03T08:35:17.741Z,961.52
2022-08-03T08:36:17.654Z,961.54
2022-08-03T08:37:17.656Z,961.48
2022-08-03T08:38:17.716Z,961.47
2022-08-03T08:40:17.776Z,961.48
2022-08-03T08:41:17.658Z,961.35
2022-08-03T08:44:17.675Z,961.27
2022-08-03T08:45:17.689Z,961.29
2022-08-03T08:46:22.763Z,961.33
2022-08-03T08:48:17.796Z,961.25
2022-08-03T08:49:17.812Z,961.2
2022-08-03T08:50:22.104Z,961.14
2022-08-03T08:51:17.796Z,961.13
2022-08-03T08:52:22.169Z,961.1
2022-08-03T08:53:19.746Z,961.07
2022-08-03T08:54:17.807Z,961.11
2022-08-03T08:55:17.854Z,961.12
2022-08-03T08:56:19.045Z,961.22
2022-08-03T08:57:40.621Z,961.18
2022-08-03T08:59:17.836Z,961.22
2022-08-03T09:00:17.805Z,961.24
2022-08-03T09:01:17.766Z,961.27
2022-08-03T09:02:17.960Z,961.28
2022-08-03T09:03:22.449Z,961.27
2022-08-03T09:04:17.809Z,961.34
2022-08-03T09:05:17.844Z,961.31
2022-08-03T09:06:17.829Z,961.3
2022-08-03T09:08:17.847Z,961.28
2022-08-03T09:10:01.272Z,961.31
2022-08-03T09:10:17.942Z,961.25
2022-08-03T09:11:17.732Z,961.26
2022-08-03T09:12:39.005Z,961.28
2022-08-03T09:13:17.873Z,961.3
2022-08-03T09:14:35.280Z,961.28
2022-08-03T09:15:17.959Z,961.3
2022-08-03T09:17:17.895Z,961.25
2022-08-03T09:18:17.825Z,961.24
2022-08-03T09:19:17.889Z,961.22
2022-08-03T09:22:17.990Z,961.23
2022-08-03T09:23:59.400Z,961.22
2022-08-03T09:24:31.277Z,961.24
2022-08-03T09:25:23.702Z,961.25
2022-08-03T09:26:17.874Z,961.26
2022-08-03T09:27:18.055Z,961.22
2022-08-03T09:28:32.315Z,961.15
2022-08-03T09:29:17.875Z,961.17
2022-08-03T09:30:19.233Z,961.18
2022-08-03T09:31:18.009Z,961.14
2022-08-03T09:33:17.878Z,961.16
2022-08-03T09:36:17.951Z,961.18
2022-08-03T09:37:18.124Z,961.16
2022-08-03T09:39:17.872Z,961.2
2022-08-03T09:40:17.826Z,961.15
2022-08-03T09:41:17.878Z,961.13
2022-08-03T09:42:18.334Z,961.1
2022-08-03T09:43:17.922Z,961.08
2022-08-03T09:44:24.778Z,961.09
2022-08-03T09:45:17.826Z,961.05
2022-08-03T09:46:17.931Z,961.02
2022-08-03T09:47:18.014Z,961.04
2022-08-03T09:48:17.990Z,961.03
2022-08-03T09:49:18.058Z,961.07
2022-08-03T09:50:17.834Z,961.09
2022-08-03T09:51:33.399Z,961.11
2022-08-03T09:52:30.345Z,961.09
2022-08-03T09:53:18.134Z,961.07
2022-08-03T09:54:20.618Z,961.03
2022-08-03T09:55:23.439Z,961.08
2022-08-03T09:56:32.605Z,961.04
2022-08-03T09:57:18.108Z,961.05
2022-08-03T09:58:17.944Z,961.01
2022-08-03T09:59:17.948Z,961
2022-08-03T10:00:17.983Z,961.02
2022-08-03T10:01:23.751Z,961.04
2022-08-03T10:03:17.994Z,960.97
2022-08-03T10:04:17.878Z,960.95
2022-08-03T10:07:18.013Z,960.89
2022-08-03T10:08:18.091Z,960.91
2022-08-03T10:09:17.996Z,960.92
2022-08-03T10:10:28.695Z,960.94
2022-08-03T10:11:18.198Z,960.93
2022-08-03T10:12:17.999Z,960.91
2022-08-03T10:13:17.966Z,960.89
2022-08-03T10:16:20.708Z,960.93
2022-08-03T10:16:21.029Z,960.96
2022-08-03T10:17:18.284Z,960.95
2022-08-03T10:19:17.994Z,960.96
2022-08-03T10:20:17.931Z,960.93
2022-08-03T10:21:18.009Z,960.96
2022-08-03T10:22:18.017Z,960.92
2022-08-03T10:23:18.045Z,960.88
2022-08-03T10:24:18.014Z,960.9
2022-08-03T10:25:17.982Z,960.87
2022-08-03T10:26:18.051Z,960.84
2022-08-03T10:27:18.170Z,960.78
2022-08-03T10:28:18.023Z,960.74
2022-08-03T10:29:18.058Z,960.67
2022-08-03T10:30:17.961Z,960.63
2022-08-03T10:32:17.955Z,960.67
2022-08-03T10:33:50.450Z,960.65
2022-08-03T10:34:17.957Z,960.71
2022-08-03T10:35:19.545Z,960.69
2022-08-03T10:36:18.052Z,960.74
2022-08-03T10:38:17.965Z,960.75
2022-08-03T10:39:17.967Z,960.77
2022-08-03T10:40:33.315Z,960.74
2022-08-03T10:41:17.985Z,960.73
2022-08-03T10:42:18.071Z,960.66
2022-08-03T10:43:18.102Z,960.68
2022-08-03T10:44:18.074Z,960.64
2022-08-03T10:46:18.008Z,960.62
2022-08-03T10:47:18.292Z,960.63
2022-08-03T10:48:18.045Z,960.65
2022-08-03T10:49:32.833Z,960.64
2022-08-03T10:50:18.079Z,960.62
2022-08-03T10:51:17.998Z,960.64
2022-08-03T10:52:32.649Z,960.63
2022-08-03T10:53:18.691Z,960.62
2022-08-03T10:54:18.215Z,960.6
2022-08-03T10:55:18.121Z,960.57
2022-08-03T10:57:18.235Z,960.51
2022-08-03T10:59:27.628Z,960.49
2022-08-03T11:00:18.062Z,960.51
2022-08-03T11:01:18.196Z,960.5
2022-08-03T11:02:18.093Z,960.52
2022-08-03T11:03:18.087Z,960.5
2022-08-03T11:04:18.144Z,960.54
2022-08-03T11:05:18.112Z,960.53
2022-08-03T11:06:18.085Z,960.54
2022-08-03T11:07:18.297Z,960.53
2022-08-03T11:08:18.193Z,960.46
2022-08-03T11:09:18.177Z,960.41
2022-08-03T11:10:18.136Z,960.46
2022-08-03T11:11:18.103Z,960.45
2022-08-03T11:12:18.068Z,960.5
2022-08-03T11:13:18.139Z,960.49
2022-08-03T11:14:18.105Z,960.52
2022-08-03T11:15:18.186Z,960.51
2022-08-03T11:16:21.300Z,960.52
2022-08-03T11:17:18.148Z,960.51
2022-08-03T11:18:18.166Z,960.46
2022-08-03T11:19:18.154Z,960.42
2022-08-03T11:20:18.116Z,960.41
2022-08-03T11:21:18.184Z,960.42
2022-08-03T11:22:18.139Z,960.41
2022-08-03T11:23:18.089Z,960.43
2022-08-03T11:24:18.183Z,960.38
2022-08-03T11:25:53.272Z,960.37
2022-08-03T11:27:18.586Z,960.36
2022-08-03T11:28:18.224Z,960.43
2022-08-03T11:29:18.241Z,960.39
2022-08-03T11:30:18.200Z,960.32
2022-08-03T11:31:32.914Z,960.24
2022-08-03T11:32:19.614Z,960.26
2022-08-03T11:33:18.117Z,960.21
2022-08-03T11:34:18.158Z,960.19
2022-08-03T11:36:32.162Z,960.16
2022-08-03T11:37:18.287Z,960.18
2022-08-03T11:38:18.235Z,960.22
2022-08-03T11:39:18.127Z,960.23
2022-08-03T11:40:18.172Z,960.27
2022-08-03T11:41:18.234Z,960.25
2022-08-03T11:42:18.143Z,960.24
2022-08-03T11:43:18.277Z,960.26
2022-08-03T11:44:18.346Z,960.27
2022-08-03T11:47:18.431Z,960.26
2022-08-03T11:48:18.228Z,960.28
2022-08-03T11:49:18.223Z,960.35
2022-08-03T11:50:18.249Z,960.34
2022-08-03T11:51:18.223Z,960.38
2022-08-03T11:52:18.190Z,960.36
2022-08-03T11:53:18.253Z,960.32
2022-08-03T11:54:18.329Z,960.33
2022-08-03T11:55:18.337Z,960.31
2022-08-03T11:57:18.388Z,960.23
2022-08-03T11:58:57.599Z,960.21
2022-08-03T11:59:21.520Z,960.16
2022-08-03T12:00:18.225Z,960.14
2022-08-03T12:01:22.719Z,960.1
2022-08-03T12:02:18.266Z,960.13
2022-08-03T12:03:18.388Z,960.11
2022-08-03T12:04:18.304Z,960.13
2022-08-03T12:05:18.270Z,960.1
2022-08-03T12:06:18.231Z,960.13
2022-08-03T12:07:24.502Z,960.11
2022-08-03T12:08:18.279Z,960.16
2022-08-03T12:09:18.274Z,960.2
2022-08-03T12:10:18.310Z,960.18
2022-08-03T12:11:18.210Z,960.19
2022-08-03T12:12:18.252Z,960.16
2022-08-03T12:13:56.972Z,960.09
2022-08-03T12:14:45.957Z,960.01
2022-08-03T12:15:18.468Z,960.02
2022-08-03T12:16:18.316Z,959.99
2022-08-03T12:19:18.326Z,960.02
2022-08-03T12:20:18.293Z,960.03
2022-08-03T12:21:18.252Z,960.04
2022-08-03T12:22:18.403Z,960.08
2022-08-03T12:23:18.298Z,960.02
2022-08-03T12:24:18.358Z,960.04
2022-08-03T12:25:18.333Z,960.08
2022-08-03T12:26:18.246Z,960.11
2022-08-03T12:27:18.607Z,960.1
2022-08-03T12:28:28.544Z,960.05
2022-08-03T12:29:18.296Z,960.03
2022-08-03T12:30:18.268Z,960.04
2022-08-03T12:31:18.334Z,960.03
2022-08-03T12:32:18.403Z,960.04
2022-08-03T12:33:18.272Z,960.06
2022-08-03T12:35:18.301Z,959.95
2022-08-03T12:36:18.382Z,959.92
2022-08-03T12:37:19.364Z,959.91
2022-08-03T12:38:18.414Z,959.89
2022-08-03T12:39:18.375Z,959.9
2022-08-03T12:41:18.422Z,959.87
2022-08-03T12:44:18.592Z,959.92
2022-08-03T12:45:18.516Z,959.95
2022-08-03T12:46:18.472Z,959.97
2022-08-03T12:47:18.602Z,959.95
2022-08-03T12:48:18.335Z,959.96
2022-08-03T12:49:18.356Z,959.94
2022-08-03T12:50:18.437Z,959.95
2022-08-03T12:51:18.395Z,959.99
2022-08-03T12:53:18.424Z,959.93
2022-08-03T12:55:18.363Z,959.97
2022-08-03T12:56:18.435Z,959.89
2022-08-03T12:57:18.581Z,959.92
2022-08-03T12:58:19.033Z,959.89
2022-08-03T12:59:18.445Z,959.91
2022-08-03T13:00:21.920Z,959.97
2022-08-03T13:02:18.720Z,959.98
2022-08-03T13:03:39.881Z,960.01
2022-08-03T13:04:18.477Z,959.99
2022-08-03T13:05:18.439Z,959.98
2022-08-03T13:06:18.417Z,959.97
2022-08-03T13:08:18.512Z,959.95
2022-08-03T13:09:18.415Z,959.94
2022-08-03T13:11:19.105Z,959.89
2022-08-03T13:12:18.497Z,959.88
2022-08-03T13:13:18.374Z,959.9
2022-08-03T13:15:18.445Z,959.88
2022-08-03T13:17:18.570Z,959.89
2022-08-03T13:18:18.424Z,959.95
2022-08-03T13:19:18.390Z,959.97
2022-08-03T13:21:18.424Z,960.01
2022-08-03T13:22:18.823Z,959.98
2022-08-03T13:23:21.946Z,959.96
2022-08-03T13:25:18.403Z,959.89
2022-08-03T13:26:18.462Z,959.8
2022-08-03T13:27:58.941Z,959.83
2022-08-03T13:28:18.701Z,959.85
2022-08-03T13:30:23.412Z,959.79
2022-08-03T13:31:18.561Z,959.82
2022-08-03T13:32:18.619Z,959.79
2022-08-03T13:34:22.499Z,959.8
2022-08-03T13:35:18.497Z,959.79
2022-08-03T13:38:18.623Z,959.81
2022-08-03T13:39:18.445Z,959.76
2022-08-03T13:40:18.541Z,959.77
2022-08-03T13:41:18.541Z,959.76
2022-08-03T13:42:18.454Z,959.75
2022-08-03T13:44:28.249Z,959.72
2022-08-03T13:45:18.463Z,959.7
2022-08-03T13:46:18.549Z,959.69
2022-08-03T13:47:19.158Z,959.7
2022-08-03T13:48:36.069Z,959.69
2022-08-03T13:49:18.556Z,959.65
2022-08-03T13:50:18.574Z,959.67
2022-08-03T13:52:18.758Z,959.68
2022-08-03T13:53:18.605Z,959.7
2022-08-03T13:54:18.486Z,959.69
2022-08-03T13:55:18.531Z,959.64
2022-08-03T13:56:18.500Z,959.59
2022-08-03T13:58:18.663Z,959.61
2022-08-03T13:59:18.611Z,959.64
2022-08-03T14:01:25.924Z,959.6
2022-08-03T14:02:18.663Z,959.68
2022-08-03T14:03:18.508Z,959.66
2022-08-03T14:04:22.354Z,959.63
2022-08-03T14:05:18.508Z,959.53
2022-08-03T14:06:18.512Z,959.46
2022-08-03T14:07:18.676Z,959.5
2022-08-03T14:08:18.619Z,959.54
2022-08-03T14:09:18.584Z,959.51
2022-08-03T14:10:18.551Z,959.49
2022-08-03T14:11:18.630Z,959.44
2022-08-03T14:12:18.593Z,959.41
2022-08-03T14:13:18.661Z,959.44
2022-08-03T14:14:18.668Z,959.41
2022-08-03T14:15:18.626Z,959.4
2022-08-03T14:16:18.555Z,959.41
2022-08-03T14:17:18.882Z,959.39
2022-08-03T14:18:28.073Z,959.4
2022-08-03T14:19:18.658Z,959.41
2022-08-03T14:20:36.377Z,959.42
2022-08-03T14:21:18.746Z,959.46
2022-08-03T14:22:18.683Z,959.44
2022-08-03T14:23:18.644Z,959.46
2022-08-03T14:24:18.597Z,959.35
2022-08-03T14:25:18.676Z,959.33
2022-08-03T14:26:18.571Z,959.36
2022-08-03T14:27:18.631Z,959.4
2022-08-03T14:30:18.656Z,959.34
2022-08-03T14:32:10.560Z,959.32
2022-08-03T14:32:18.606Z,959.29
2022-08-03T14:33:18.590Z,959.27
2022-08-03T14:34:18.681Z,959.21
2022-08-03T14:35:18.687Z,959.22
2022-08-03T14:36:18.610Z,959.29
2022-08-03T14:37:18.926Z,959.24
2022-08-03T14:38:18.675Z,959.32
2022-08-03T14:39:18.656Z,959.31
2022-08-03T14:40:18.731Z,959.25
2022-08-03T14:41:19.928Z,959.28